Time;durP1;ratioP1;P1;durP2;ratioP2;P2;SDS_P1;SDS_P2;PMS_P1;PMS_P2;Temp;Humidity;BMP_temperature;BMP_pressure;BME280_temperature;BME280_humidity;BME280_pressure;Samples;Min_cycle;Max_cycle;Signal;HPM_P1;HPM_P2
2023/04/17 00:01:37;;;;;;;8.00;7.30;;;17.00;62.30;17.90;101536.00;;;;5031995;28;20175;-47
2023/04/17 00:04:03;;;;;;;8.87;7.97;;;17.00;62.30;17.90;101458.00;;;;5032677;28;20180;-46
2023/04/17 00:06:32;;;;;;;8.30;7.60;;;17.00;62.20;17.80;101530.00;;;;5034120;28;20200;-47
2023/04/17 00:08:58;;;;;;;8.10;7.30;;;16.90;62.20;17.80;101525.00;;;;5032157;28;20651;-47
2023/04/17 00:11:24;;;;;;;8.07;7.37;;;16.90;62.20;17.90;101521.00;;;;5034056;28;20192;-47
2023/04/17 00:13:50;;;;;;;8.97;7.77;;;16.90;62.20;17.80;101523.00;;;;5035534;28;20187;-47
2023/04/17 00:16:16;;;;;;;8.50;7.70;;;16.90;62.30;17.90;101528.00;;;;5034115;28;20526;-47
2023/04/17 00:18:42;;;;;;;8.37;7.57;;;16.90;62.20;17.90;101526.00;;;;5037254;28;20198;-48
2023/04/17 00:21:07;;;;;;;8.67;7.77;;;16.90;62.30;17.90;101520.00;;;;5031632;28;20183;-49
2023/04/17 00:23:33;;;;;;;8.27;7.57;;;16.90;62.20;17.90;101516.00;;;;5037634;28;20211;-47
2023/04/17 00:25:59;;;;;;;8.23;7.53;;;16.90;62.30;17.90;101519.00;;;;5043143;28;20216;-47
2023/04/17 00:28:25;;;;;;;8.50;7.70;;;16.90;62.30;17.80;101444.00;;;;5020647;28;20634;-47
2023/04/17 00:30:51;;;;;;;8.60;7.60;;;16.90;62.30;17.80;101515.00;;;;5031848;28;20215;-48
2023/04/17 00:33:17;;;;;;;8.10;7.40;;;16.90;62.30;17.80;101525.00;;;;5031719;28;20254;-48
2023/04/17 00:35:43;;;;;;;8.43;7.73;;;16.90;62.30;17.80;101516.00;;;;5031774;28;20192;-46
2023/04/17 00:38:08;;;;;;;8.33;7.53;;;16.90;62.30;17.80;101519.00;;;;5034298;28;20217;-46
2023/04/17 00:40:34;;;;;;;8.87;8.00;;;16.80;62.10;17.80;101515.00;;;;5038392;28;20255;-46
2023/04/17 00:43:01;;;;;;;8.73;7.93;;;16.80;62.10;17.80;101521.00;;;;5033656;28;20182;-46
2023/04/17 00:45:28;;;;;;;8.63;7.83;;;16.90;62.30;17.80;101496.00;;;;5032382;28;20175;-46
2023/04/17 00:47:54;;;;;;;8.90;8.03;;;16.90;62.30;17.80;101507.00;;;;5031999;28;20198;-47
2023/04/17 00:50:19;;;;;;;8.70;7.93;;;16.80;62.20;17.80;101513.00;;;;5031053;28;20369;-46
2023/04/17 00:52:45;;;;;;;8.83;7.93;;;16.90;62.30;17.80;101506.00;;;;5015736;28;20188;-46
2023/04/17 00:55:11;;;;;;;8.50;7.70;;;16.80;62.20;17.80;101491.00;;;;5033509;28;20566;-48
2023/04/17 00:57:37;;;;;;;9.37;8.37;;;16.80;62.10;17.80;101504.00;;;;5029267;28;20206;-47
2023/04/17 01:00:03;;;;;;;8.50;7.70;;;16.80;62.20;17.80;101501.00;;;;5030669;28;20316;-46
2023/04/17 01:02:29;;;;;;;8.80;8.00;;;16.80;62.20;17.80;101505.00;;;;5030480;28;20178;-47
2023/04/17 01:04:54;;;;;;;9.27;8.47;;;16.80;62.20;17.80;101505.00;;;;5029198;28;20183;-47
2023/04/17 01:07:20;;;;;;;8.90;8.10;;;16.80;62.20;17.80;101515.00;;;;5030768;28;20200;-46
2023/04/17 01:09:46;;;;;;;9.33;8.50;;;16.80;62.30;17.80;101509.00;;;;5029835;28;20183;-46
2023/04/17 01:12:22;;;;;;;9.20;8.40;;;16.80;62.30;17.80;101509.00;;;;5029450;28;20233;-48
2023/04/17 01:14:52;;;;;;;8.80;8.03;;;16.70;62.10;17.80;101495.00;;;;5030510;28;20178;-48
2023/04/17 01:17:18;;;;;;;8.97;8.17;;;16.80;62.30;17.70;101495.00;;;;5029082;28;20214;-47
2023/04/17 01:19:45;;;;;;;8.70;7.90;;;16.70;62.20;17.80;101496.00;;;;5028895;28;20207;-47
2023/04/17 01:22:10;;;;;;;9.43;8.53;;;16.70;62.10;17.70;101501.00;;;;5028947;28;20185;-47
2023/04/17 01:24:36;;;;;;;9.20;8.40;;;16.70;62.20;17.70;101499.00;;;;5021878;28;20175;-47
2023/04/17 01:27:03;;;;;;;9.00;8.27;;;16.70;62.10;17.70;101494.00;;;;5030316;28;20285;-47
2023/04/17 01:29:28;;;;;;;9.30;8.50;;;16.80;62.40;17.70;101494.00;;;;5029907;28;20250;-46
2023/04/17 01:31:54;;;;;;;9.20;8.40;;;16.70;62.20;17.70;101498.00;;;;5030101;28;20221;-47
2023/04/17 01:34:20;;;;;;;9.73;8.93;;;16.70;62.10;17.70;101501.00;;;;5029914;28;20183;-47
2023/04/17 01:36:46;;;;;;;9.70;8.80;;;16.70;62.10;17.70;101494.00;;;;5030157;28;20567;-47
2023/04/17 01:39:11;;;;;;;9.20;8.40;;;16.70;62.20;17.70;101376.00;;;;5030386;28;20207;-46
2023/04/17 01:41:37;;;;;;;9.10;8.27;;;16.70;62.20;17.70;101506.00;;;;5042221;28;20317;-46
2023/04/17 01:44:03;;;;;;;9.67;8.77;;;16.70;62.30;17.70;101517.00;;;;5032163;28;20246;-46
2023/04/17 01:46:29;;;;;;;9.57;8.77;;;16.70;62.20;17.70;101508.00;;;;5029868;28;20195;-47
2023/04/17 01:48:54;;;;;;;10.00;9.20;;;16.70;62.10;17.70;101508.00;;;;5030060;28;20182;-48
2023/04/17 01:51:20;;;;;;;9.80;8.90;;;16.70;62.10;17.70;101506.00;;;;5028753;28;20194;-46
2023/04/17 01:53:46;;;;;;;10.03;9.13;;;16.70;62.20;17.70;101521.00;;;;5029720;28;20178;-47
2023/04/17 01:56:12;;;;;;;9.77;8.87;;;16.70;62.20;17.70;101503.00;;;;5030192;28;20203;-46
2023/04/17 01:58:38;;;;;;;10.20;9.30;;;16.70;62.30;17.70;101506.00;;;;5029657;28;20203;-47
2023/04/17 02:01:04;;;;;;;10.77;9.87;;;16.70;62.20;17.60;101504.00;;;;5029895;28;20404;-47
2023/04/17 02:03:30;;;;;;;9.70;8.90;;;16.60;62.10;17.60;101508.00;;;;5029694;28;20179;-47
2023/04/17 02:05:56;;;;;;;10.50;9.60;;;16.60;62.10;17.60;101514.00;;;;5029990;28;20276;-47
2023/04/17 02:08:22;;;;;;;10.13;9.23;;;16.60;62.10;17.60;101508.00;;;;5030178;28;20280;-46
2023/04/17 02:10:48;;;;;;;10.17;9.27;;;16.60;62.20;17.60;101510.00;;;;5029167;28;20519;-46
2023/04/17 02:13:14;;;;;;;10.40;9.50;;;16.60;62.10;17.60;101516.00;;;;5030510;28;20193;-47
2023/04/17 02:15:39;;;;;;;10.57;9.67;;;16.60;62.10;17.60;101513.00;;;;5030329;28;20199;-46
2023/04/17 02:18:05;;;;;;;10.93;9.97;;;16.60;62.10;17.60;101518.00;;;;5030441;28;20175;-46
2023/04/17 02:20:34;;;;;;;10.53;9.50;;;16.60;62.10;17.60;101513.00;;;;5030223;28;20210;-46
2023/04/17 02:23:00;;;;;;;10.60;9.70;;;16.60;62.10;17.60;101506.00;;;;5030166;28;20179;-47
2023/04/17 02:25:26;;;;;;;10.97;10.07;;;16.60;62.10;17.60;101504.00;;;;5029214;28;20175;-46
2023/04/17 02:27:53;;;;;;;10.17;9.37;;;16.60;62.20;17.60;101513.00;;;;5027734;28;20251;-46
2023/04/17 02:30:19;;;;;;;10.47;9.57;;;16.60;62.20;17.50;101499.00;;;;5028967;28;20176;-47
2023/04/17 02:32:45;;;;;;;10.73;9.80;;;16.60;62.20;17.50;101507.00;;;;5029292;28;20186;-47
2023/04/17 02:35:10;;;;;;;10.40;9.50;;;16.60;62.20;17.50;101509.00;;;;5029129;28;20477;-47
2023/04/17 02:37:36;;;;;;;11.47;10.47;;;16.60;62.10;17.50;101508.00;;;;5031375;28;20199;-47
2023/04/17 02:40:06;;;;;;;10.40;9.50;;;16.60;62.10;17.50;101506.00;;;;5034126;28;20217;-46
2023/04/17 02:42:31;;;;;;;10.83;9.83;;;16.50;62.70;17.50;101500.00;;;;5030613;28;20189;-47
2023/04/17 02:44:57;;;;;;;9.93;9.13;;;16.50;62.00;17.50;101512.00;;;;5031323;28;20214;-47
2023/04/17 02:47:23;;;;;;;10.20;9.40;;;16.50;62.00;17.50;101501.00;;;;5031330;28;20203;-47
2023/04/17 02:49:49;;;;;;;10.63;9.77;;;16.50;62.00;17.50;101507.00;;;;5031883;28;20558;-48
2023/04/17 02:52:15;;;;;;;10.87;9.87;;;16.50;62.80;17.50;101509.00;;;;5036648;28;20622;-46
2023/04/17 02:54:41;;;;;;;10.90;10.00;;;16.50;62.00;17.50;101508.00;;;;5030647;28;20176;-47
2023/04/17 02:57:07;;;;;;;10.10;9.20;;;16.50;62.10;17.50;101503.00;;;;5029312;28;20198;-46
2023/04/17 02:59:32;;;;;;;10.57;9.67;;;16.50;62.00;17.50;101510.00;;;;5029270;28;20215;-47
2023/04/17 03:01:58;;;;;;;11.00;10.10;;;16.50;62.10;17.50;101504.00;;;;5028990;28;20174;-46
2023/04/17 03:04:26;;;;;;;10.73;9.83;;;16.50;62.00;17.40;101508.00;;;;5033369;28;20172;-47
2023/04/17 03:06:52;;;;;;;10.97;10.07;;;16.50;62.10;17.40;101512.00;;;;5033082;28;20211;-47
2023/04/17 03:09:21;;;;;;;10.10;9.30;;;16.50;62.00;17.40;101512.00;;;;5024682;28;20186;-46
2023/04/17 03:11:49;;;;;;;10.47;9.67;;;16.50;61.90;17.40;101507.00;;;;5029199;28;20185;-46
2023/04/17 03:14:15;;;;;;;9.87;9.17;;;16.50;61.90;17.40;101507.00;;;;5029264;28;20261;-48
2023/04/17 03:16:41;;;;;;;10.27;9.40;;;16.50;61.90;17.40;101517.00;;;;5032744;28;20206;-47
2023/04/17 03:19:07;;;;;;;10.13;9.23;;;16.50;61.90;17.40;101513.00;;;;5032951;28;20743;-47
2023/04/17 03:21:32;;;;;;;10.17;9.37;;;16.50;61.90;17.40;101522.00;;;;5044428;28;20234;-47
2023/04/17 03:23:58;;;;;;;9.97;9.17;;;16.40;61.80;17.30;101520.00;;;;5034553;28;20530;-47
2023/04/17 03:26:24;;;;;;;10.17;9.37;;;16.40;61.80;17.30;101517.00;;;;5032707;28;20206;-47
2023/04/17 03:28:50;;;;;;;10.40;9.50;;;16.40;61.80;17.30;101524.00;;;;5032963;28;20178;-47
2023/04/17 03:31:15;;;;;;;10.50;9.70;;;16.40;61.80;17.10;101523.00;;;;5033062;28;20258;-47
2023/04/17 03:33:41;;;;;;;10.00;9.20;;;16.40;61.80;17.30;101518.00;;;;5032331;28;20179;-47
2023/04/17 03:36:07;;;;;;;10.63;9.73;;;16.40;61.80;17.30;101525.00;;;;5032323;28;20689;-47
2023/04/17 03:38:34;;;;;;;10.23;9.33;;;16.40;61.90;17.30;101533.00;;;;5023386;28;20319;-46
2023/04/17 03:41:00;;;;;;;10.47;9.57;;;16.30;61.80;17.30;101522.00;;;;5023035;28;20171;-47
2023/04/17 03:43:26;;;;;;;10.40;9.37;;;16.40;62.60;17.30;101512.00;;;;5028948;28;20178;-47
2023/04/17 03:45:51;;;;;;;10.97;9.60;;;16.40;62.20;17.30;101517.00;;;;5031975;28;20187;-47
2023/04/17 03:48:17;;;;;;;11.30;8.97;;;16.40;62.10;17.30;101511.00;;;;5033052;28;20182;-47
2023/04/17 03:50:43;;;;;;;12.53;9.30;;;16.30;62.00;17.30;101516.00;;;;5029761;28;20225;-48
2023/04/17 03:53:08;;;;;;;10.60;9.80;;;16.40;62.20;17.30;101520.00;;;;5031903;28;20182;-47
2023/04/17 03:55:34;;;;;;;11.70;10.63;;;16.30;62.10;17.30;101526.00;;;;5032514;28;20178;-47
2023/04/17 03:58:00;;;;;;;10.80;9.90;;;16.30;62.10;17.30;101525.00;;;;5032965;28;20187;-47
2023/04/17 04:00:26;;;;;;;14.03;11.90;;;16.40;62.20;17.20;101514.00;;;;5033106;28;20741;-47
2023/04/17 04:02:52;;;;;;;15.43;12.93;;;16.30;62.10;17.20;101522.00;;;;5036102;28;20646;-47
2023/04/17 04:05:17;;;;;;;13.77;12.53;;;16.30;62.10;17.20;101529.00;;;;5023855;28;20690;-46
2023/04/17 04:07:43;;;;;;;14.57;13.17;;;16.30;62.10;17.20;101531.00;;;;5032643;28;20198;-46
2023/04/17 04:10:09;;;;;;;14.20;12.70;;;16.30;62.10;17.20;101533.00;;;;5032755;28;20175;-46
2023/04/17 04:12:35;;;;;;;14.03;12.63;;;16.30;62.10;17.20;101527.00;;;;5032394;28;20174;-46
2023/04/17 04:15:01;;;;;;;17.23;13.27;;;16.20;62.00;17.20;101535.00;;;;5030934;28;20187;-52
2023/04/17 04:17:26;;;;;;;15.97;14.57;;;16.30;62.20;17.10;101532.00;;;;5032497;28;20195;-47
2023/04/17 04:19:52;;;;;;;15.57;14.17;;;16.20;61.90;17.10;101524.00;;;;5039533;28;20221;-47
2023/04/17 04:22:20;;;;;;;14.83;13.43;;;16.20;62.00;16.80;101528.00;;;;5041932;28;20175;-46
2023/04/17 04:24:46;;;;;;;14.80;13.40;;;16.20;62.00;17.10;101531.00;;;;5040927;28;20389;-47
2023/04/17 04:27:11;;;;;;;14.30;12.93;;;16.20;62.00;17.10;101530.00;;;;5034189;28;20598;-46
2023/04/17 04:29:37;;;;;;;14.80;13.30;;;16.20;62.00;17.10;101527.00;;;;5032691;28;20190;-46
2023/04/17 04:32:03;;;;;;;15.70;14.20;;;16.20;62.10;17.10;101539.00;;;;5031604;28;20641;-46
2023/04/17 04:34:29;;;;;;;15.90;14.30;;;16.20;62.20;17.10;101528.00;;;;5036241;28;20218;-46
2023/04/17 04:36:55;;;;;;;15.87;14.47;;;16.20;62.20;17.10;101526.00;;;;5037407;28;20198;-46
2023/04/17 04:39:21;;;;;;;17.03;15.33;;;16.20;62.30;17.10;101535.00;;;;5034049;28;20246;-47
2023/04/17 04:41:49;;;;;;;17.07;15.33;;;16.20;62.30;17.00;101541.00;;;;5033370;28;20175;-46
2023/04/17 04:44:18;;;;;;;16.40;14.80;;;16.10;62.20;17.00;101538.00;;;;5032732;28;20172;-47
2023/04/17 04:46:44;;;;;;;16.30;14.70;;;16.10;62.10;17.00;101537.00;;;;5031960;28;20195;-46
2023/04/17 04:49:10;;;;;;;16.87;15.17;;;16.20;62.30;17.00;101545.00;;;;5040369;28;20175;-45
2023/04/17 04:51:35;;;;;;;16.13;14.50;;;16.10;62.10;17.00;101540.00;;;;5036862;28;20188;-47
2023/04/17 04:54:01;;;;;;;18.83;15.30;;;16.20;62.30;17.00;101540.00;;;;5030701;28;20265;-47
2023/04/17 04:56:27;;;;;;;15.93;14.43;;;16.10;62.10;17.00;101554.00;;;;5030791;28;20203;-47
2023/04/17 04:58:54;;;;;;;16.73;15.33;;;16.10;62.10;17.00;101552.00;;;;5030730;28;20206;-47
2023/04/17 05:01:19;;;;;;;16.57;15.07;;;16.10;62.10;17.00;101547.00;;;;5031808;28;20266;-47
2023/04/17 05:03:45;;;;;;;15.73;14.20;;;16.10;62.00;17.00;101556.00;;;;5031260;28;20255;-47
2023/04/17 05:06:12;;;;;;;15.50;14.17;;;16.10;62.00;17.00;101552.00;;;;5031424;28;20194;-48
2023/04/17 05:08:39;;;;;;;15.93;14.43;;;16.10;62.00;17.00;101558.00;;;;5031543;28;20175;-47
2023/04/17 05:11:05;;;;;;;15.30;13.80;;;16.10;62.00;16.90;101562.00;;;;5031996;28;20177;-47
2023/04/17 05:13:30;;;;;;;15.10;13.70;;;16.10;62.20;17.00;101563.00;;;;5029898;28;20183;-47
2023/04/17 05:15:58;;;;;;;14.47;13.07;;;16.10;62.20;17.00;101576.00;;;;5031061;28;20281;-47
2023/04/17 05:18:24;;;;;;;14.50;13.10;;;16.10;62.10;17.00;101573.00;;;;5030206;28;20187;-47
2023/04/17 05:20:50;;;;;;;14.20;13.00;;;16.10;62.10;17.00;101574.00;;;;5031705;28;20625;-47
2023/04/17 05:23:19;;;;;;;13.63;12.43;;;16.10;62.10;17.00;101584.00;;;;5030555;28;20205;-47
2023/04/17 05:25:45;;;;;;;12.80;11.70;;;16.10;62.10;17.00;101570.00;;;;5029150;28;20252;-47
2023/04/17 05:28:11;;;;;;;13.73;12.27;;;16.10;62.10;17.00;101574.00;;;;5029874;28;20180;-46
2023/04/17 05:30:36;;;;;;;12.50;11.30;;;16.10;62.10;17.00;101575.00;;;;5029572;28;20214;-47
2023/04/17 05:33:02;;;;;;;12.67;11.47;;;16.10;62.10;17.00;101575.00;;;;5030617;28;20177;-47
2023/04/17 05:35:28;;;;;;;12.67;11.57;;;16.10;62.10;17.00;101584.00;;;;5030164;28;20589;-46
2023/04/17 05:37:54;;;;;;;11.70;10.70;;;16.10;62.20;17.00;101573.00;;;;5032362;28;20206;-46
2023/04/17 05:40:20;;;;;;;11.77;10.67;;;16.10;62.20;17.00;101584.00;;;;5037037;28;20285;-46
2023/04/17 05:42:46;;;;;;;11.20;10.30;;;16.10;62.10;17.00;101591.00;;;;5031052;28;20662;-46
2023/04/17 05:45:16;;;;;;;11.00;10.10;;;16.00;62.10;17.00;101588.00;;;;5029400;28;20175;-46
2023/04/17 05:47:42;;;;;;;10.53;9.73;;;16.00;62.10;17.00;101581.00;;;;5030729;28;20290;-46
2023/04/17 05:50:08;;;;;;;10.13;9.30;;;16.00;62.10;16.90;101582.00;;;;5030926;28;20265;-46
2023/04/17 05:52:35;;;;;;;10.70;9.80;;;16.00;62.10;16.90;101580.00;;;;5030611;28;20187;-46
2023/04/17 05:55:01;;;;;;;10.13;9.27;;;16.10;62.20;16.90;101582.00;;;;5028753;28;20183;-46
2023/04/17 05:57:26;;;;;;;9.67;8.87;;;16.00;62.10;17.00;101582.00;;;;5030068;28;20210;-51
2023/04/17 05:59:52;;;;;;;9.90;9.03;;;16.00;62.10;16.90;101580.00;;;;5014046;28;20335;-47
2023/04/17 06:02:18;;;;;;;9.57;8.70;;;16.00;62.00;16.90;101582.00;;;;5023780;28;20224;-45
2023/04/17 06:04:44;;;;;;;9.00;8.30;;;16.00;62.10;16.90;101584.00;;;;5028722;28;20668;-46
2023/04/17 06:07:10;;;;;;;9.50;8.70;;;16.00;62.10;16.90;101583.00;;;;5028369;28;20195;-46
2023/04/17 06:09:37;;;;;;;9.40;8.60;;;16.00;62.10;16.90;101589.00;;;;5022244;28;20242;-46
2023/04/17 06:12:03;;;;;;;8.83;8.13;;;16.00;62.10;16.90;101597.00;;;;5030594;28;20175;-47
2023/04/17 06:14:29;;;;;;;8.47;7.67;;;16.00;62.10;16.90;101595.00;;;;5029113;28;20553;-46
2023/04/17 06:16:55;;;;;;;8.60;7.90;;;16.00;62.10;16.90;101592.00;;;;5030192;28;20678;-46
2023/04/17 06:19:22;;;;;;;9.07;8.37;;;16.00;62.20;16.90;101594.00;;;;5030110;28;20697;-46
2023/04/17 06:21:48;;;;;;;8.53;7.90;;;16.00;62.10;16.90;101597.00;;;;5030474;28;20645;-46
2023/04/17 06:24:13;;;;;;;8.80;8.03;;;16.00;62.10;16.90;101595.00;;;;5029319;28;20182;-48
2023/04/17 06:26:39;;;;;;;8.53;7.83;;;16.00;62.10;16.90;101597.00;;;;5028128;28;20712;-46
2023/04/17 06:29:05;;;;;;;8.50;7.80;;;16.00;62.90;16.90;101593.00;;;;5028866;28;20274;-46
2023/04/17 06:31:31;;;;;;;8.30;7.60;;;16.00;62.30;16.90;101598.00;;;;5032677;28;20191;-46
2023/04/17 06:33:56;;;;;;;7.90;7.30;;;16.00;62.20;16.90;101604.00;;;;5036004;28;20366;-46
2023/04/17 06:36:22;;;;;;;7.87;7.27;;;16.00;62.10;16.80;101599.00;;;;5029619;28;20207;-46
2023/04/17 06:38:48;;;;;;;8.03;7.43;;;16.00;62.20;16.80;101595.00;;;;5030515;28;20226;-46
2023/04/17 06:41:14;;;;;;;7.80;7.20;;;16.00;62.20;16.90;101602.00;;;;5031679;28;20175;-47
2023/04/17 06:43:39;;;;;;;7.93;7.33;;;16.00;62.30;16.80;101609.00;;;;5029553;28;20213;-46
2023/04/17 06:46:05;;;;;;;7.83;7.23;;;16.00;62.30;16.80;101598.00;;;;5034308;28;20195;-47
2023/04/17 06:48:31;;;;;;;8.03;7.33;;;15.90;62.10;16.90;101602.00;;;;5033770;28;20211;-46
2023/04/17 06:50:57;;;;;;;7.47;6.87;;;15.90;62.10;16.80;101605.00;;;;5029092;28;20179;-46
2023/04/17 06:53:22;;;;;;;7.60;7.00;;;15.90;62.20;16.80;101612.00;;;;5029453;28;20182;-47
2023/04/17 06:55:48;;;;;;;7.53;6.90;;;15.90;62.10;16.80;101609.00;;;;5029510;28;20202;-47
2023/04/17 06:58:14;;;;;;;7.47;6.87;;;16.00;62.40;16.90;101612.00;;;;5028228;28;20174;-46
2023/04/17 07:00:39;;;;;;;7.73;7.13;;;16.00;62.30;16.80;101622.00;;;;5028688;28;20344;-46
2023/04/17 07:03:06;;;;;;;7.47;6.87;;;16.00;62.40;16.90;101620.00;;;;5029354;28;20290;-47
2023/04/17 07:05:31;;;;;;;7.17;6.57;;;15.90;62.30;16.80;101608.00;;;;5024281;28;20274;-47
2023/04/17 07:07:57;;;;;;;7.70;7.10;;;15.90;62.40;16.80;101542.00;;;;5027617;28;20270;-46
2023/04/17 07:10:23;;;;;;;8.23;7.00;;;15.90;62.30;16.80;101623.00;;;;5029490;28;20178;-46
2023/04/17 07:12:48;;;;;;;7.57;6.97;;;15.90;62.50;16.80;101626.00;;;;5030449;28;20186;-47
2023/04/17 07:15:15;;;;;;;7.70;7.00;;;15.90;62.50;16.80;101630.00;;;;5030021;28;20277;-46
2023/04/17 07:17:40;;;;;;;7.80;6.93;;;15.90;62.60;16.80;101629.00;;;;5030176;28;20210;-46
2023/04/17 07:20:07;;;;;;;7.20;6.60;;;15.90;62.50;16.90;101636.00;;;;5030079;28;20692;-48
2023/04/17 07:22:33;;;;;;;8.43;7.13;;;15.90;62.60;16.90;101630.00;;;;5029705;28;20275;-46
2023/04/17 07:24:59;;;;;;;8.03;7.23;;;16.00;64.00;16.90;101625.00;;;;5029960;28;20257;-53
2023/04/17 07:27:25;;;;;;;8.17;7.20;;;16.00;63.30;16.90;101642.00;;;;5029730;28;20215;-47
2023/04/17 07:29:54;;;;;;;7.80;7.20;;;16.10;63.40;17.00;101646.00;;;;5030748;28;20183;-47
2023/04/17 07:32:20;;;;;;;7.67;6.97;;;16.10;63.20;17.00;101646.00;;;;5030296;28;20179;-48
2023/04/17 07:34:47;;;;;;;8.23;6.83;;;16.20;63.20;17.00;101645.00;;;;5030285;28;20186;-47
2023/04/17 07:37:14;;;;;;;7.47;6.77;;;16.30;63.00;17.10;101652.00;;;;5030106;28;20203;-47
2023/04/17 07:39:40;;;;;;;8.83;6.77;;;16.40;62.90;17.20;101650.00;;;;5029303;28;20207;-47
2023/04/17 07:42:07;;;;;;;7.23;6.53;;;16.50;63.00;17.20;101655.00;;;;5029892;28;20197;-47
2023/04/17 07:44:34;;;;;;;6.50;6.00;;;16.60;62.90;17.30;101658.00;;;;5029415;28;20258;-47
2023/04/17 07:47:00;;;;;;;6.80;6.30;;;16.80;62.70;17.40;101659.00;;;;5028971;28;20198;-47
2023/04/17 07:49:26;;;;;;;6.40;5.90;;;16.90;62.40;17.50;101663.00;;;;5029979;28;20197;-46
2023/04/17 07:51:52;;;;;;;8.87;6.00;;;17.00;62.20;17.60;101656.00;;;;5032186;28;20184;-47
2023/04/17 07:54:17;;;;;;;6.80;6.20;;;17.20;62.10;17.70;101660.00;;;;5037988;28;20191;-47
2023/04/17 07:56:45;;;;;;;6.10;5.60;;;17.30;61.90;17.80;101657.00;;;;5042571;28;20208;-47
2023/04/17 07:59:12;;;;;;;6.40;5.90;;;17.40;61.90;17.90;101649.00;;;;5033405;28;20202;-47
2023/04/17 08:01:37;;;;;;;6.27;5.77;;;17.50;61.70;18.00;101660.00;;;;5032382;28;20212;-48
2023/04/17 08:04:03;;;;;;;6.30;5.70;;;17.70;61.70;18.10;101651.00;;;;5032501;28;20182;-47
2023/04/17 08:06:29;;;;;;;6.27;5.70;;;17.80;61.70;18.20;101662.00;;;;5032318;28;20198;-48
2023/04/17 08:08:55;;;;;;;6.50;6.00;;;17.90;61.70;18.30;101664.00;;;;5036417;28;20190;-47
2023/04/17 08:11:21;;;;;;;6.17;5.67;;;17.90;61.50;18.40;101659.00;;;;5038137;28;20197;-51
2023/04/17 08:13:46;;;;;;;6.30;5.80;;;18.10;61.50;18.50;101674.00;;;;5033178;28;20270;-48
2023/04/17 08:16:12;;;;;;;6.00;5.53;;;18.10;61.30;18.50;101667.00;;;;5032320;28;20696;-47
2023/04/17 08:18:40;;;;;;;6.17;5.67;;;18.30;61.30;18.60;101661.00;;;;5033010;28;20672;-47
2023/04/17 08:21:07;;;;;;;5.77;5.37;;;18.40;61.30;18.70;101675.00;;;;5033148;28;20232;-47
2023/04/17 08:23:33;;;;;;;5.73;5.20;;;18.40;61.30;18.80;101667.00;;;;5031576;28;20190;-47
2023/04/17 08:25:58;;;;;;;6.13;5.63;;;18.40;61.20;18.90;101673.00;;;;5032834;28;20281;-48
2023/04/17 08:28:24;;;;;;;6.23;5.73;;;18.50;61.20;18.90;101671.00;;;;5031876;28;20187;-46
2023/04/17 08:30:50;;;;;;;5.90;5.30;;;18.60;61.10;19.00;101672.00;;;;5040575;28;20180;-48
2023/04/17 08:33:17;;;;;;;5.80;5.37;;;18.70;61.30;19.10;101673.00;;;;5039987;28;20186;-48
2023/04/17 08:35:43;;;;;;;5.83;5.33;;;18.70;61.30;19.10;101671.00;;;;5034743;28;20637;-46
2023/04/17 08:38:13;;;;;;;5.77;5.27;;;18.80;61.40;19.20;101683.00;;;;5034432;28;20186;-47
2023/04/17 08:40:45;;;;;;;5.70;5.30;;;18.80;61.60;19.30;101677.00;;;;5034417;28;20225;-47
2023/04/17 08:43:15;;;;;;;6.03;5.53;;;18.90;61.70;19.30;101689.00;;;;5034042;28;20692;-48
2023/04/17 08:45:48;;;;;;;5.87;5.27;;;18.90;61.90;19.40;101685.00;;;;5041780;28;20202;-47
2023/04/17 08:48:14;;;;;;;6.67;5.60;;;18.90;62.10;19.40;101687.00;;;;5037358;28;20175;-47
2023/04/17 08:50:40;;;;;;;5.90;5.40;;;18.90;62.40;19.40;101677.00;;;;5032223;28;20187;-47
2023/04/17 08:53:06;;;;;;;8.30;5.40;;;18.90;62.40;19.50;101693.00;;;;5030798;28;20618;-47
2023/04/17 08:55:32;;;;;;;7.03;5.67;;;18.90;62.40;19.50;101691.00;;;;5013903;28;20190;-47
2023/04/17 08:58:02;;;;;;;6.63;5.40;;;18.90;62.30;19.50;101684.00;;;;5031710;28;20187;-48
2023/04/17 09:00:33;;;;;;;5.80;5.30;;;19.00;62.40;19.50;101703.00;;;;5031187;28;20214;-48
2023/04/17 09:03:00;;;;;;;9.87;5.10;;;19.00;63.20;19.50;101694.00;;;;5029584;28;20182;-49
2023/04/17 09:05:29;;;;;;;6.40;5.53;;;19.00;62.50;19.60;101691.00;;;;5031357;28;20588;-49
2023/04/17 09:08:19;;;;;;;7.20;5.30;;;18.90;63.20;19.60;101695.00;;;;5031376;28;20642;-47
2023/04/17 09:10:50;;;;;;;6.43;5.20;;;19.00;62.60;19.60;101688.00;;;;5032036;28;20665;-48
2023/04/17 09:13:18;;;;;;;5.97;4.90;;;19.00;62.90;19.60;101684.00;;;;5030013;28;20210;-47
2023/04/17 09:15:45;;;;;;;7.83;5.13;;;18.90;63.30;19.60;101700.00;;;;5031311;28;20548;-47
2023/04/17 09:18:41;;;;;;;5.70;5.20;;;19.00;64.00;19.60;101693.00;;;;5031724;28;20186;-47
2023/04/17 09:21:08;;;;;;;6.07;5.00;;;19.00;64.40;19.60;101704.00;;;;5030923;28;20187;-47
2023/04/17 09:23:55;;;;;;;5.70;5.20;;;19.00;64.50;19.70;101696.00;;;;5030907;28;20641;-47
2023/04/17 09:26:30;;;;;;;5.80;5.30;;;19.00;64.50;19.70;101698.00;;;;5030341;28;20712;-47
2023/04/17 09:29:13;;;;;;;6.00;5.43;;;19.00;64.70;19.70;101707.00;;;;5031742;28;20198;-47
2023/04/17 09:31:41;;;;;;;5.70;5.20;;;19.00;64.10;19.70;101672.00;;;;5031721;28;20587;-47
2023/04/17 09:34:10;;;;;;;5.63;5.10;;;19.10;64.00;19.70;101693.00;;;;5030970;28;20176;-51
2023/04/17 09:36:37;;;;;;;7.93;5.10;;;19.10;64.10;19.80;101699.00;;;;5031110;28;20199;-52
2023/04/17 09:39:14;;;;;;;5.70;4.77;;;19.10;64.10;19.80;101686.00;;;;5030799;28;20208;-52
2023/04/17 09:41:40;;;;;;;7.50;5.00;;;19.10;64.10;19.80;101698.00;;;;5029807;28;20717;-52
2023/04/17 09:44:06;;;;;;;5.70;4.77;;;19.20;63.80;19.80;101695.00;;;;5030610;28;20258;-52
2023/04/17 09:46:39;;;;;;;6.10;4.70;;;19.20;63.70;19.90;101707.00;;;;5030451;28;20202;-51
2023/04/17 09:49:27;;;;;;;5.37;4.93;;;19.20;63.70;19.90;101702.00;;;;5030918;28;20178;-54
2023/04/17 09:51:53;;;;;;;5.47;4.57;;;19.20;63.60;19.90;101703.00;;;;5029993;28;20233;-53
2023/04/17 09:54:19;;;;;;;5.00;4.50;;;19.20;63.50;19.90;101688.00;;;;5029378;28;20178;-51
2023/04/17 09:56:48;;;;;;;5.50;5.00;;;19.20;63.50;19.90;101707.00;;;;5029202;28;20195;-53
2023/04/17 09:59:14;;;;;;;4.80;4.40;;;19.20;63.70;19.90;101691.00;;;;5029753;28;20199;-52
2023/04/17 10:01:39;;;;;;;5.30;4.80;;;19.20;63.60;19.90;101687.00;;;;5030416;28;20193;-53
2023/04/17 10:04:05;;;;;;;5.47;4.50;;;19.20;63.60;19.90;101687.00;;;;5030264;28;20167;-51
2023/04/17 10:06:31;;;;;;;5.83;4.83;;;19.20;63.50;19.90;101689.00;;;;5028628;28;20263;-52
2023/04/17 10:08:57;;;;;;;5.23;4.33;;;19.20;63.60;19.90;101691.00;;;;5030657;28;20177;-53
2023/04/17 10:11:26;;;;;;;5.13;4.37;;;19.20;63.80;19.90;101682.00;;;;5030545;28;20202;-52
2023/04/17 10:14:03;;;;;;;6.33;4.60;;;19.20;63.90;20.00;101679.00;;;;5029617;28;20206;-52
2023/04/17 10:16:39;;;;;;;4.77;4.43;;;19.20;64.20;20.00;101680.00;;;;5031686;28;20194;-52
2023/04/17 10:19:34;;;;;;;6.23;4.37;;;19.20;64.20;20.00;101684.00;;;;5025272;28;20567;-52
2023/04/17 10:22:18;;;;;;;5.10;4.70;;;19.20;64.20;20.00;101685.00;;;;5031053;28;20642;-52
2023/04/17 10:24:48;;;;;;;5.07;4.57;;;19.20;64.60;20.00;101682.00;;;;5030621;28;20645;-53
2023/04/17 10:27:26;;;;;;;4.87;4.37;;;19.20;65.00;20.00;101687.00;;;;5029967;28;20206;-55
2023/04/17 10:29:55;;;;;;;6.37;4.70;;;19.30;64.80;20.00;101685.00;;;;5024331;28;20178;-52
2023/04/17 10:32:24;;;;;;;7.87;5.17;;;19.30;64.20;20.00;101676.00;;;;5037288;28;20167;-53
2023/04/17 10:34:50;;;;;;;6.13;5.10;;;19.30;64.30;20.10;101673.00;;;;5043560;28;20176;-53
2023/04/17 10:37:16;;;;;;;15.30;5.70;;;19.30;64.00;20.10;101670.00;;;;5030862;28;20553;-54
2023/04/17 10:40:09;;;;;;;8.37;6.03;;;19.40;64.30;20.10;101671.00;;;;5016131;28;20209;-53
2023/04/17 10:42:35;;;;;;;8.63;5.77;;;19.40;64.20;20.10;101667.00;;;;5024844;28;20213;-51